createdAt,value
2023-05-07T00:00:06.014Z,7.40
2023-05-07T00:01:05.966Z,7.40
2023-05-07T00:02:05.955Z,6.90
2023-05-07T00:03:05.995Z,7.50
2023-05-07T00:04:06.243Z,7.10
2023-05-07T00:05:05.990Z,7.20
2023-05-07T00:06:05.869Z,7.40
2023-05-07T00:07:05.866Z,6.90
2023-05-07T00:08:05.831Z,6.70
2023-05-07T00:09:05.793Z,7.20
2023-05-07T00:10:05.780Z,7.20
2023-05-07T00:11:05.752Z,7.10
2023-05-07T00:12:05.733Z,6.70
2023-05-07T00:13:05.769Z,6.40
2023-05-07T00:14:05.697Z,6.80
2023-05-07T00:15:05.667Z,6.70
2023-05-07T00:16:05.763Z,6.50
2023-05-07T00:17:05.621Z,6.80
2023-05-07T00:18:05.646Z,7.20
2023-05-07T00:19:05.588Z,7.10
2023-05-07T00:20:05.561Z,7.00
2023-05-07T00:21:05.545Z,7.00
2023-05-07T00:22:05.512Z,7.70
2023-05-07T00:23:05.498Z,6.50
2023-05-07T00:24:05.477Z,6.90
2023-05-07T00:25:05.462Z,7.20
2023-05-07T00:26:05.435Z,7.30
2023-05-07T00:27:05.408Z,7.00
2023-05-07T00:28:05.396Z,6.90
2023-05-07T00:29:05.364Z,7.10
2023-05-07T00:30:05.348Z,7.30
2023-05-07T00:31:05.325Z,7.30
2023-05-07T00:32:05.541Z,6.80
2023-05-07T00:33:05.342Z,7.10
2023-05-07T00:34:05.266Z,7.60
2023-05-07T00:35:05.234Z,7.30
2023-05-07T00:36:05.220Z,7.30
2023-05-07T00:37:06.711Z,7.10
2023-05-07T00:38:05.189Z,7.10
2023-05-07T00:39:05.148Z,6.40
2023-05-07T00:40:05.140Z,7.40
2023-05-07T00:41:05.106Z,7.20
2023-05-07T00:42:05.093Z,6.80
2023-05-07T00:43:05.064Z,7.20
2023-05-07T00:44:05.070Z,6.80
2023-05-07T00:45:05.019Z,7.20
2023-05-07T00:46:05.115Z,7.10
2023-05-07T00:47:04.978Z,7.60
2023-05-07T00:48:05.164Z,7.20
2023-05-07T00:49:04.935Z,6.90
2023-05-07T00:50:04.927Z,6.70
2023-05-07T00:51:04.892Z,6.90
2023-05-07T00:52:04.869Z,6.50
2023-05-07T00:53:04.851Z,7.20
2023-05-07T00:54:04.825Z,6.70
2023-05-07T00:55:04.803Z,6.90
2023-05-07T00:56:04.990Z,6.80
2023-05-07T00:57:04.769Z,7.00
2023-05-07T00:58:04.742Z,7.10
2023-05-07T00:59:04.787Z,6.60
2023-05-07T01:00:04.699Z,6.50
2023-05-07T01:01:04.725Z,6.70
2023-05-07T01:02:04.661Z,7.00
2023-05-07T01:03:04.673Z,6.60
2023-05-07T01:04:04.726Z,6.60
2023-05-07T01:05:04.591Z,6.60
2023-05-07T01:06:04.564Z,7.20
2023-05-07T01:07:04.544Z,6.90
2023-05-07T01:08:04.555Z,6.70
2023-05-07T01:09:04.504Z,7.20
2023-05-07T01:10:04.481Z,7.50
2023-05-07T01:11:04.457Z,7.20
2023-05-07T01:12:04.442Z,6.90
2023-05-07T01:13:04.465Z,7.40
2023-05-07T01:14:04.393Z,7.20
2023-05-07T01:15:04.372Z,7.10
2023-05-07T01:16:04.358Z,7.20
2023-05-07T01:17:04.366Z,7.00
2023-05-07T01:18:04.342Z,6.70
2023-05-07T01:19:04.282Z,7.00
2023-05-07T01:20:04.357Z,7.10
2023-05-07T01:21:04.255Z,6.50
2023-05-07T01:22:04.231Z,7.10
2023-05-07T01:23:04.199Z,7.20
2023-05-07T01:24:04.180Z,7.10
2023-05-07T01:25:04.155Z,6.80
2023-05-07T01:26:04.148Z,6.80
2023-05-07T01:27:04.111Z,6.90
2023-05-07T01:28:04.110Z,6.50
2023-05-07T01:29:04.078Z,7.00
2023-05-07T01:30:04.058Z,7.20
2023-05-07T01:31:04.168Z,7.10
2023-05-07T01:32:04.033Z,7.10
2023-05-07T01:33:04.042Z,7.80
2023-05-07T01:34:03.969Z,7.60
2023-05-07T01:35:03.942Z,8.10
2023-05-07T01:36:03.936Z,8.70
2023-05-07T01:37:03.899Z,8.20
2023-05-07T01:38:03.880Z,8.60
2023-05-07T01:39:03.858Z,9.60
2023-05-07T01:40:03.831Z,9.30
2023-05-07T01:41:03.819Z,9.50
2023-05-07T01:42:03.795Z,10.40
2023-05-07T01:43:03.767Z,10.50
2023-05-07T01:44:03.744Z,11.40
2023-05-07T01:45:03.721Z,11.10
2023-05-07T01:46:03.746Z,11.30
2023-05-07T01:47:03.679Z,11.50
2023-05-07T01:48:03.718Z,12.40
2023-05-07T01:49:03.633Z,12.20
2023-05-07T01:50:03.631Z,12.70
2023-05-07T01:51:03.629Z,11.40
2023-05-07T01:52:03.724Z,11.80
2023-05-07T01:53:03.591Z,12.30
2023-05-07T01:54:03.530Z,12.40
2023-05-07T01:55:03.508Z,13.90
2023-05-07T01:56:03.480Z,13.30
2023-05-07T01:57:03.467Z,13.40
2023-05-07T01:58:03.435Z,13.40
2023-05-07T01:59:03.417Z,14.10
2023-05-07T02:00:03.399Z,14.10
2023-05-07T02:01:03.371Z,13.70
2023-05-07T02:02:03.372Z,12.40
2023-05-07T02:03:03.391Z,13.90
2023-05-07T02:04:03.448Z,13.50
2023-05-07T02:05:03.317Z,14.00
2023-05-07T02:06:03.267Z,14.30
2023-05-07T02:07:03.237Z,14.20
2023-05-07T02:08:03.240Z,14.90
2023-05-07T02:09:03.206Z,14.70
2023-05-07T02:10:03.191Z,14.40
2023-05-07T02:11:03.185Z,14.40
2023-05-07T02:12:03.138Z,15.30
2023-05-07T02:13:03.216Z,14.20
2023-05-07T02:14:03.100Z,14.30
2023-05-07T02:15:03.063Z,14.70
2023-05-07T02:16:03.064Z,14.70
2023-05-07T02:17:03.023Z,14.80
2023-05-07T02:18:03.058Z,14.70
2023-05-07T02:19:03.014Z,15.10
2023-05-07T02:20:02.957Z,16.70
2023-05-07T02:21:02.947Z,14.90
2023-05-07T02:22:02.933Z,15.90
2023-05-07T02:23:02.905Z,15.70
2023-05-07T02:24:02.890Z,14.40
2023-05-07T02:25:02.851Z,15.30
2023-05-07T02:26:02.833Z,15.40
2023-05-07T02:27:02.817Z,16.00
2023-05-07T02:28:02.785Z,16.00
2023-05-07T02:29:02.762Z,16.20
2023-05-07T02:30:02.740Z,16.50
2023-05-07T02:31:02.714Z,16.10
2023-05-07T02:32:02.741Z,16.30
2023-05-07T02:33:02.721Z,16.10
2023-05-07T02:34:02.657Z,16.20
2023-05-07T02:35:02.645Z,16.30
2023-05-07T02:36:02.617Z,16.50
2023-05-07T02:37:02.596Z,16.70
2023-05-07T02:38:02.569Z,17.40
2023-05-07T02:39:02.544Z,16.80
2023-05-07T02:40:02.677Z,16.90
2023-05-07T02:41:02.506Z,17.50
2023-05-07T02:42:02.483Z,18.00
2023-05-07T02:43:02.459Z,17.30
2023-05-07T02:44:02.448Z,17.70
2023-05-07T02:45:02.412Z,17.30
2023-05-07T02:46:02.455Z,17.70
2023-05-07T02:47:02.376Z,17.40
2023-05-07T02:48:02.501Z,17.40
2023-05-07T02:49:02.350Z,18.10
2023-05-07T02:50:02.330Z,17.70
2023-05-07T02:51:02.288Z,18.00
2023-05-07T02:52:02.254Z,18.60
2023-05-07T02:53:02.240Z,18.10
2023-05-07T02:54:02.237Z,17.50
2023-05-07T02:55:02.191Z,17.90
2023-05-07T02:56:02.432Z,18.20
2023-05-07T02:57:02.152Z,18.60
2023-05-07T02:58:02.129Z,17.70
2023-05-07T02:59:02.101Z,18.00
2023-05-07T03:00:02.084Z,18.00
2023-05-07T03:01:02.076Z,18.40
2023-05-07T03:02:02.036Z,18.90
2023-05-07T03:03:02.038Z,18.50
2023-05-07T03:04:02.000Z,18.80
2023-05-07T03:05:01.971Z,18.70
2023-05-07T03:06:01.952Z,18.60
2023-05-07T03:07:01.936Z,18.10
2023-05-07T03:08:01.903Z,19.20
2023-05-07T03:09:01.885Z,18.30
2023-05-07T03:10:01.863Z,19.30
2023-05-07T03:11:01.869Z,19.80
2023-05-07T03:12:01.883Z,18.70
2023-05-07T03:13:01.948Z,18.60
2023-05-07T03:14:01.783Z,18.40
2023-05-07T03:15:01.755Z,18.60
2023-05-07T03:16:01.775Z,18.50
2023-05-07T03:17:01.708Z,18.30
2023-05-07T03:18:01.794Z,19.10
2023-05-07T03:19:01.712Z,19.10
2023-05-07T03:20:01.650Z,18.70
2023-05-07T03:21:01.685Z,19.80
2023-05-07T03:22:01.606Z,18.60
2023-05-07T03:23:01.573Z,19.70
2023-05-07T03:24:01.549Z,20.00
2023-05-07T03:25:01.551Z,19.20
2023-05-07T03:26:01.505Z,19.50
2023-05-07T03:27:01.484Z,19.20
2023-05-07T03:28:01.553Z,19.40
2023-05-07T03:29:01.435Z,18.60
2023-05-07T03:30:01.412Z,18.30
2023-05-07T03:31:01.435Z,19.20
2023-05-07T03:32:01.392Z,19.20
2023-05-07T03:33:01.439Z,19.30
2023-05-07T03:34:01.342Z,19.00
2023-05-07T03:35:01.338Z,19.00
2023-05-07T03:36:01.305Z,19.70
2023-05-07T03:37:01.262Z,19.10
2023-05-07T03:38:01.248Z,20.60
2023-05-07T03:39:01.225Z,20.10
2023-05-07T03:40:01.188Z,20.30
2023-05-07T03:41:01.172Z,19.50
2023-05-07T03:42:01.148Z,19.80
2023-05-07T03:43:01.128Z,19.30
2023-05-07T03:44:01.197Z,19.70
2023-05-07T03:45:01.102Z,19.20
2023-05-07T03:46:01.092Z,18.90
2023-05-07T03:47:01.043Z,20.50
2023-05-07T03:48:01.065Z,19.10
2023-05-07T03:49:00.991Z,19.40
2023-05-07T03:50:00.971Z,19.10
2023-05-07T03:51:00.946Z,19.20
2023-05-07T03:52:00.921Z,19.30
2023-05-07T03:53:00.906Z,20.20
2023-05-07T03:54:00.882Z,19.00
2023-05-07T03:55:00.865Z,19.50
2023-05-07T03:56:00.838Z,18.90
2023-05-07T03:57:00.826Z,20.60
2023-05-07T03:58:00.790Z,19.90
2023-05-07T03:59:00.773Z,20.60
2023-05-07T04:00:00.798Z,20.50
2023-05-07T04:01:00.728Z,19.40
2023-05-07T04:02:02.318Z,19.70
2023-05-07T04:03:00.724Z,20.40
2023-05-07T04:04:00.741Z,20.10
2023-05-07T04:05:00.657Z,19.60
2023-05-07T04:06:00.622Z,20.00
2023-05-07T04:07:00.604Z,20.60
2023-05-07T04:08:00.587Z,19.30
2023-05-07T04:09:00.556Z,19.50
2023-05-07T04:10:00.546Z,19.00
2023-05-07T04:11:01.440Z,20.20
2023-05-07T04:12:00.498Z,19.30
2023-05-07T04:13:00.502Z,20.10
2023-05-07T04:14:00.451Z,20.10
2023-05-07T04:15:00.420Z,19.40
2023-05-07T04:16:00.638Z,19.80
2023-05-07T04:17:00.451Z,19.60
2023-05-07T04:18:00.377Z,20.00
2023-05-07T04:19:00.338Z,19.70
2023-05-07T04:20:00.307Z,18.80
2023-05-07T04:21:00.289Z,19.60
2023-05-07T04:22:00.264Z,20.00
2023-05-07T04:23:00.239Z,19.40
2023-05-07T04:24:00.223Z,18.90
2023-05-07T04:25:00.193Z,21.20
2023-05-07T04:26:00.174Z,19.50
2023-05-07T04:27:00.154Z,19.70
2023-05-07T04:28:00.126Z,20.00
2023-05-07T04:29:00.161Z,18.90
2023-05-07T04:30:00.130Z,19.50
2023-05-07T04:31:00.102Z,19.80
2023-05-07T04:32:00.225Z,19.60
2023-05-07T04:33:00.098Z,19.50
2023-05-07T04:34:00.006Z,20.60
2023-05-07T04:34:59.977Z,20.80
2023-05-07T04:35:59.953Z,20.30
2023-05-07T04:36:59.930Z,20.40
2023-05-07T04:37:59.914Z,20.50
2023-05-07T04:38:59.896Z,18.90
2023-05-07T04:39:59.866Z,19.80
2023-05-07T04:40:59.842Z,20.20
2023-05-07T04:41:59.817Z,19.90
2023-05-07T04:42:59.797Z,20.40
2023-05-07T04:43:59.770Z,21.80
2023-05-07T04:44:59.751Z,19.70
2023-05-07T04:45:59.812Z,20.80
2023-05-07T04:46:59.715Z,20.50
2023-05-07T04:47:59.790Z,20.80
2023-05-07T04:48:59.661Z,20.30
2023-05-07T04:49:59.633Z,19.80
2023-05-07T04:50:59.615Z,20.10
2023-05-07T04:51:59.593Z,19.20
2023-05-07T04:52:59.577Z,19.90
2023-05-07T04:53:59.548Z,19.10
2023-05-07T04:54:59.528Z,19.60
2023-05-07T04:55:59.510Z,19.30
2023-05-07T04:56:59.485Z,20.60
2023-05-07T04:57:59.468Z,21.00
2023-05-07T04:58:59.440Z,20.50
2023-05-07T04:59:59.412Z,19.80
2023-05-07T05:00:59.444Z,20.00
2023-05-07T05:01:59.388Z,20.30
2023-05-07T05:02:59.380Z,19.80
2023-05-07T05:03:59.389Z,20.30
2023-05-07T05:04:59.302Z,20.50
2023-05-07T05:05:59.282Z,21.00
2023-05-07T05:06:59.266Z,21.10
2023-05-07T05:07:59.238Z,20.40
2023-05-07T05:08:59.230Z,20.10
2023-05-07T05:09:59.192Z,20.50
2023-05-07T05:10:59.175Z,20.00
2023-05-07T05:11:59.152Z,20.30
2023-05-07T05:12:59.243Z,19.90
2023-05-07T05:13:59.114Z,20.50
2023-05-07T05:14:59.101Z,19.50
2023-05-07T05:15:59.081Z,20.50
2023-05-07T05:16:59.046Z,20.50
2023-05-07T05:17:59.107Z,20.50
2023-05-07T05:18:58.995Z,20.30
2023-05-07T05:19:59.066Z,19.90
2023-05-07T05:20:58.958Z,20.10
2023-05-07T05:21:58.931Z,19.50
2023-05-07T05:22:58.909Z,20.40
2023-05-07T05:23:58.892Z,20.20
2023-05-07T05:24:58.871Z,20.30
2023-05-07T05:25:58.873Z,20.70
2023-05-07T05:26:58.818Z,19.70
2023-05-07T05:27:58.800Z,19.10
2023-05-07T05:28:58.775Z,20.20
2023-05-07T05:29:58.757Z,20.00
2023-05-07T05:30:58.730Z,20.20
2023-05-07T05:31:58.772Z,20.00
2023-05-07T05:32:58.725Z,20.20
2023-05-07T05:33:58.670Z,21.30
2023-05-07T05:34:58.645Z,20.40
2023-05-07T05:35:58.641Z,20.30
2023-05-07T05:36:58.602Z,19.30
2023-05-07T05:37:58.573Z,20.10
2023-05-07T05:38:58.555Z,20.50
2023-05-07T05:39:58.545Z,20.60
2023-05-07T05:40:58.511Z,20.70
2023-05-07T05:41:58.483Z,19.30
2023-05-07T05:42:58.470Z,20.20
2023-05-07T05:43:58.437Z,21.00
2023-05-07T05:44:58.420Z,21.00
2023-05-07T05:45:58.411Z,20.80
2023-05-07T05:46:58.423Z,21.00
2023-05-07T05:47:58.382Z,20.40
2023-05-07T05:48:58.334Z,19.60
2023-05-07T05:49:58.306Z,19.60
2023-05-07T05:50:58.290Z,20.20
2023-05-07T05:51:58.284Z,20.80
2023-05-07T05:52:58.242Z,19.80
2023-05-07T05:53:58.222Z,20.10
2023-05-07T05:54:58.198Z,20.30
2023-05-07T05:55:58.184Z,20.10
2023-05-07T05:56:58.164Z,20.10
2023-05-07T05:57:58.125Z,20.30
2023-05-07T05:58:58.127Z,19.80
2023-05-07T05:59:58.085Z,20.40
2023-05-07T06:00:58.077Z,20.10
2023-05-07T06:01:58.064Z,20.00
2023-05-07T06:02:58.027Z,20.10
2023-05-07T06:03:57.995Z,19.90
2023-05-07T06:04:58.065Z,19.30
2023-05-07T06:05:57.969Z,20.10
2023-05-07T06:06:57.930Z,20.60
2023-05-07T06:07:58.045Z,19.70
2023-05-07T06:08:57.882Z,20.10
2023-05-07T06:09:57.862Z,19.90
2023-05-07T06:10:57.842Z,18.70
2023-05-07T06:12:00.347Z,20.40
2023-05-07T06:12:57.851Z,20.70
2023-05-07T06:13:57.773Z,20.80
2023-05-07T06:14:57.752Z,20.10
2023-05-07T06:15:57.729Z,19.80
2023-05-07T06:16:57.789Z,20.10
2023-05-07T06:17:57.720Z,20.80
2023-05-07T06:18:57.673Z,20.20
2023-05-07T06:19:57.645Z,19.50
2023-05-07T06:20:57.617Z,20.40
2023-05-07T06:21:57.600Z,20.60
2023-05-07T06:22:57.579Z,21.00
2023-05-07T06:23:57.649Z,19.80
2023-05-07T06:24:57.529Z,20.80
2023-05-07T06:25:57.506Z,20.20
2023-05-07T06:26:57.495Z,19.80
2023-05-07T06:27:57.477Z,19.60
2023-05-07T06:28:57.448Z,21.30
2023-05-07T06:29:57.433Z,21.60
2023-05-07T06:30:57.399Z,20.60
2023-05-07T06:31:57.418Z,21.00
2023-05-07T06:32:57.379Z,20.10
2023-05-07T06:33:57.326Z,20.40
2023-05-07T06:34:57.310Z,19.40
2023-05-07T06:35:57.288Z,20.50
2023-05-07T06:36:57.273Z,20.80
2023-05-07T06:37:57.238Z,21.00
2023-05-07T06:38:57.227Z,21.40
2023-05-07T06:39:59.296Z,20.30
2023-05-07T06:40:57.197Z,20.80
2023-05-07T06:41:57.158Z,19.90
2023-05-07T06:42:57.146Z,20.40
2023-05-07T06:43:57.111Z,18.90
2023-05-07T06:44:57.100Z,21.40
2023-05-07T06:45:57.121Z,20.40
2023-05-07T06:46:57.048Z,20.00
2023-05-07T06:47:57.093Z,20.00
2023-05-07T06:48:57.002Z,19.60
2023-05-07T06:49:56.983Z,21.60
2023-05-07T06:50:56.972Z,21.70
2023-05-07T06:51:56.931Z,20.90
2023-05-07T06:52:56.923Z,21.00
2023-05-07T06:53:56.891Z,20.50
2023-05-07T06:54:56.871Z,21.10
2023-05-07T06:55:56.949Z,21.30
2023-05-07T06:56:56.831Z,21.00
2023-05-07T06:57:56.808Z,20.40
2023-05-07T06:58:56.782Z,20.40
2023-05-07T06:59:56.754Z,20.20
2023-05-07T07:00:56.736Z,20.50
2023-05-07T07:01:56.742Z,20.70
2023-05-07T07:02:56.769Z,21.30
2023-05-07T07:03:56.662Z,21.60
2023-05-07T07:04:56.700Z,21.20
2023-05-07T07:05:56.626Z,20.40
2023-05-07T07:06:56.602Z,22.00
2023-05-07T07:07:56.585Z,20.80
2023-05-07T07:08:56.556Z,19.80
2023-05-07T07:09:56.538Z,20.20
2023-05-07T07:10:56.534Z,21.00
2023-05-07T07:11:56.912Z,22.00
2023-05-07T07:12:56.543Z,21.00
2023-05-07T07:13:56.449Z,21.20
2023-05-07T07:14:56.426Z,21.70
2023-05-07T07:15:56.421Z,21.00
2023-05-07T07:16:56.408Z,22.00
2023-05-07T07:17:56.398Z,22.10
2023-05-07T07:18:56.341Z,21.50
2023-05-07T07:19:56.334Z,21.90
2023-05-07T07:20:56.293Z,21.60
2023-05-07T07:21:56.280Z,22.00
2023-05-07T07:22:56.251Z,22.70
2023-05-07T07:23:56.228Z,21.60
2023-05-07T07:24:56.203Z,21.70
2023-05-07T07:25:56.187Z,22.00
2023-05-07T07:26:56.167Z,22.30
2023-05-07T07:27:56.164Z,21.80
2023-05-07T07:28:56.119Z,22.60
2023-05-07T07:29:56.106Z,21.50
2023-05-07T07:30:56.085Z,21.70
2023-05-07T07:31:56.226Z,20.60
2023-05-07T07:32:56.107Z,22.90
2023-05-07T07:33:56.010Z,21.60
2023-05-07T07:34:55.984Z,21.60
2023-05-07T07:35:55.966Z,20.70
2023-05-07T07:36:55.949Z,22.70
2023-05-07T07:37:55.919Z,22.90
2023-05-07T07:38:55.907Z,21.50
2023-05-07T07:39:55.883Z,22.10
2023-05-07T07:40:55.855Z,21.80
2023-05-07T07:41:55.855Z,21.60
2023-05-07T07:42:55.824Z,21.70
2023-05-07T07:43:55.948Z,21.70
2023-05-07T07:44:55.768Z,22.50
2023-05-07T07:45:55.752Z,21.40
2023-05-07T07:46:55.775Z,21.00
2023-05-07T07:47:55.763Z,21.50
2023-05-07T07:48:55.682Z,21.70
2023-05-07T07:49:55.674Z,20.90
2023-05-07T07:50:55.636Z,20.60
2023-05-07T07:51:55.621Z,21.10
2023-05-07T07:52:55.604Z,22.70
2023-05-07T07:53:55.578Z,21.30
2023-05-07T07:54:55.550Z,20.00
2023-05-07T07:55:59.490Z,22.40
2023-05-07T07:56:55.504Z,21.10
2023-05-07T07:57:55.489Z,20.40
2023-05-07T07:58:55.462Z,21.60
2023-05-07T07:59:55.461Z,21.80
2023-05-07T08:00:55.424Z,21.40
2023-05-07T08:01:55.741Z,20.80
2023-05-07T08:02:55.575Z,20.90
2023-05-07T08:03:55.465Z,20.80
2023-05-07T08:04:55.332Z,20.90
2023-05-07T08:05:55.319Z,21.30
2023-05-07T08:06:55.307Z,20.80
2023-05-07T08:07:55.279Z,21.10
2023-05-07T08:08:55.248Z,20.90
2023-05-07T08:09:55.222Z,21.10
2023-05-07T08:10:55.210Z,21.00
2023-05-07T08:11:55.194Z,20.40
2023-05-07T08:12:55.221Z,20.90
2023-05-07T08:13:55.150Z,20.20
2023-05-07T08:14:55.129Z,21.30
2023-05-07T08:15:55.137Z,21.40
2023-05-07T08:17:55.092Z,21.80
2023-05-07T08:18:55.047Z,21.30
2023-05-07T08:19:55.017Z,21.40
2023-05-07T08:20:54.997Z,20.60
2023-05-07T08:21:54.974Z,20.20
2023-05-07T08:22:54.967Z,21.60
2023-05-07T08:23:54.935Z,20.60
2023-05-07T08:24:54.925Z,20.40
2023-05-07T08:25:54.887Z,21.10
2023-05-07T08:26:54.870Z,21.20
2023-05-07T08:27:54.850Z,20.40
2023-05-07T08:28:54.829Z,20.20
2023-05-07T08:29:54.809Z,20.80
2023-05-07T08:30:54.819Z,20.50
2023-05-07T08:31:54.851Z,20.60
2023-05-07T08:32:54.802Z,19.70
2023-05-07T08:33:54.721Z,21.10
2023-05-07T08:34:54.706Z,20.90
2023-05-07T08:35:54.729Z,20.20
2023-05-07T08:36:54.662Z,20.60
2023-05-07T08:37:54.635Z,21.00
2023-05-07T08:38:54.625Z,20.90
2023-05-07T08:39:54.590Z,20.40
2023-05-07T08:40:54.582Z,21.30
2023-05-07T08:41:54.554Z,20.00
2023-05-07T08:42:54.541Z,19.20
2023-05-07T08:43:54.509Z,20.00
2023-05-07T08:44:54.488Z,21.30
2023-05-07T08:45:54.498Z,20.10
2023-05-07T08:46:54.579Z,18.70
2023-05-07T08:47:54.518Z,19.60
2023-05-07T08:48:54.410Z,19.10
2023-05-07T08:49:54.380Z,20.60
2023-05-07T08:50:54.364Z,19.20
2023-05-07T08:51:54.343Z,19.90
2023-05-07T08:52:54.321Z,19.70
2023-05-07T08:53:54.290Z,19.10
2023-05-07T08:54:54.274Z,20.00
2023-05-07T08:55:54.255Z,20.20
2023-05-07T08:56:54.232Z,19.50
2023-05-07T08:57:54.209Z,20.10
2023-05-07T08:58:54.186Z,20.00
2023-05-07T08:59:54.162Z,20.60
2023-05-07T09:00:54.150Z,19.00
2023-05-07T09:01:54.205Z,19.80
2023-05-07T09:02:54.134Z,19.90
2023-05-07T09:03:54.378Z,19.60
2023-05-07T09:04:54.080Z,19.30
2023-05-07T09:05:54.044Z,20.10
2023-05-07T09:06:54.021Z,19.20
2023-05-07T09:07:54.589Z,19.70
2023-05-07T09:08:53.974Z,19.00
2023-05-07T09:09:53.963Z,18.90
2023-05-07T09:10:53.931Z,19.70
2023-05-07T09:11:53.916Z,19.40
2023-05-07T09:12:53.930Z,19.30
2023-05-07T09:13:53.872Z,18.50
2023-05-07T09:14:53.864Z,19.20
2023-05-07T09:15:53.867Z,18.70
2023-05-07T09:16:53.809Z,18.60
2023-05-07T09:17:53.811Z,18.90
2023-05-07T09:18:53.774Z,19.50
2023-05-07T09:19:53.769Z,17.70
2023-05-07T09:20:53.725Z,18.20
2023-05-07T09:21:53.703Z,18.30
2023-05-07T09:22:53.684Z,18.60
2023-05-07T09:23:53.661Z,18.70
2023-05-07T09:24:53.640Z,18.60
2023-05-07T09:25:53.621Z,18.10
2023-05-07T09:26:53.606Z,17.80
2023-05-07T09:27:53.581Z,18.70
2023-05-07T09:28:53.561Z,18.80
2023-05-07T09:29:53.538Z,18.70
2023-05-07T09:30:53.525Z,18.30
2023-05-07T09:31:53.503Z,19.40
2023-05-07T09:32:53.521Z,18.00
2023-05-07T09:33:53.454Z,17.90
2023-05-07T09:34:53.448Z,19.50
2023-05-07T09:35:53.505Z,19.10
2023-05-07T09:36:53.398Z,19.10
2023-05-07T09:37:53.370Z,19.10
2023-05-07T09:38:53.358Z,19.50
2023-05-07T09:39:53.346Z,18.80
2023-05-07T09:40:53.320Z,18.70
2023-05-07T09:41:53.291Z,19.40
2023-05-07T09:42:53.269Z,18.50
2023-05-07T09:43:53.245Z,17.90
2023-05-07T09:44:53.225Z,16.70
2023-05-07T09:45:53.242Z,18.00
2023-05-07T09:46:53.193Z,17.00
2023-05-07T09:47:53.214Z,17.10
2023-05-07T09:48:53.145Z,17.40
2023-05-07T09:49:53.115Z,17.80
2023-05-07T09:50:53.112Z,18.30
2023-05-07T09:51:53.112Z,17.30
2023-05-07T09:52:53.065Z,17.30
2023-05-07T09:53:53.040Z,16.40
2023-05-07T09:54:53.029Z,17.20
2023-05-07T09:55:53.031Z,16.40
2023-05-07T09:56:52.995Z,16.80
2023-05-07T09:57:52.963Z,17.50
2023-05-07T09:58:52.975Z,18.00
2023-05-07T09:59:52.919Z,17.00
2023-05-07T10:00:52.911Z,16.50
2023-05-07T10:01:52.875Z,16.60
2023-05-07T10:02:53.059Z,17.70
2023-05-07T10:03:52.924Z,16.40
2023-05-07T10:04:52.815Z,17.50
2023-05-07T10:05:52.797Z,17.50
2023-05-07T10:06:52.776Z,16.70
2023-05-07T10:07:52.841Z,16.00
2023-05-07T10:08:52.733Z,17.30
2023-05-07T10:09:52.717Z,17.00
2023-05-07T10:10:52.689Z,16.30
2023-05-07T10:11:52.669Z,16.10
2023-05-07T10:12:52.759Z,15.70
2023-05-07T10:13:52.633Z,16.40
2023-05-07T10:14:52.618Z,15.60
2023-05-07T10:15:52.583Z,15.10
2023-05-07T10:16:52.565Z,16.40
2023-05-07T10:17:52.595Z,16.40
2023-05-07T10:18:52.523Z,15.80
2023-05-07T10:19:52.500Z,16.30
2023-05-07T10:20:52.515Z,16.20
2023-05-07T10:21:52.486Z,16.40
2023-05-07T10:22:52.444Z,15.90
2023-05-07T10:23:52.449Z,17.10
2023-05-07T10:24:52.409Z,15.90
2023-05-07T10:25:57.276Z,16.00
2023-05-07T10:26:52.375Z,17.10
2023-05-07T10:27:52.340Z,16.90
2023-05-07T10:28:52.320Z,16.20
2023-05-07T10:29:52.312Z,17.00
2023-05-07T10:30:52.315Z,16.40
2023-05-07T10:31:52.262Z,15.90
2023-05-07T10:32:52.290Z,16.40
2023-05-07T10:33:52.223Z,16.30
2023-05-07T10:34:52.210Z,15.30
2023-05-07T10:35:52.177Z,15.30
2023-05-07T10:36:52.171Z,16.20
2023-05-07T10:37:52.141Z,14.40
2023-05-07T10:38:52.133Z,15.80
2023-05-07T10:39:52.123Z,15.70
2023-05-07T10:40:52.091Z,15.50
2023-05-07T10:41:52.056Z,15.20
2023-05-07T10:42:52.046Z,15.00
2023-05-07T10:43:52.023Z,15.00
2023-05-07T10:44:52.030Z,14.70
2023-05-07T10:45:51.991Z,15.40
2023-05-07T10:46:51.969Z,15.60
2023-05-07T10:47:51.971Z,14.50
2023-05-07T10:48:51.925Z,16.50
2023-05-07T10:49:51.905Z,16.60
2023-05-07T10:50:51.939Z,16.50
2023-05-07T10:51:51.872Z,15.30
2023-05-07T10:52:51.848Z,15.90
2023-05-07T10:53:51.826Z,14.10
2023-05-07T10:54:51.807Z,13.70
2023-05-07T10:55:51.889Z,14.50
2023-05-07T10:56:51.773Z,13.90
2023-05-07T10:57:51.748Z,14.00
2023-05-07T10:58:51.731Z,13.30
2023-05-07T10:59:51.719Z,13.70
2023-05-07T11:00:51.684Z,14.50
2023-05-07T11:01:51.759Z,14.50
2023-05-07T11:02:51.687Z,13.60
2023-05-07T11:03:51.621Z,14.20
2023-05-07T11:04:51.643Z,13.40
2023-05-07T11:05:51.584Z,13.50
2023-05-07T11:06:51.566Z,12.90
2023-05-07T11:07:51.550Z,12.50
2023-05-07T11:08:51.527Z,12.70
2023-05-07T11:09:51.506Z,13.30
2023-05-07T11:10:51.489Z,14.20
2023-05-07T11:11:51.502Z,14.60
2023-05-07T11:12:51.466Z,14.00
2023-05-07T11:13:51.492Z,13.60
2023-05-07T11:14:51.416Z,13.30
2023-05-07T11:15:51.419Z,12.20
2023-05-07T11:16:51.410Z,13.00
2023-05-07T11:17:51.364Z,12.50
2023-05-07T11:18:51.336Z,12.00
2023-05-07T11:19:51.333Z,12.80
2023-05-07T11:20:51.296Z,11.60
2023-05-07T11:21:51.269Z,12.40
2023-05-07T11:22:51.253Z,13.00
2023-05-07T11:23:51.232Z,13.30
2023-05-07T11:24:51.219Z,12.60
2023-05-07T11:25:51.188Z,12.70
2023-05-07T11:26:51.190Z,12.60
2023-05-07T11:27:51.167Z,12.90
2023-05-07T11:28:51.129Z,12.50
2023-05-07T11:29:51.104Z,12.10
2023-05-07T11:30:51.093Z,12.30
2023-05-07T11:31:51.222Z,12.00
2023-05-07T11:32:51.085Z,11.60
2023-05-07T11:33:51.032Z,11.30
2023-05-07T11:34:51.013Z,12.30
2023-05-07T11:35:50.994Z,12.10
2023-05-07T11:36:50.978Z,12.80
2023-05-07T11:37:50.952Z,12.50
2023-05-07T11:38:50.934Z,11.90
2023-05-07T11:39:50.917Z,12.10
2023-05-07T11:40:50.899Z,11.40
2023-05-07T11:41:52.880Z,11.30
2023-05-07T11:42:51.946Z,12.00
2023-05-07T11:43:50.950Z,11.40
2023-05-07T11:44:50.818Z,10.50
2023-05-07T11:45:50.816Z,11.10
2023-05-07T11:46:50.794Z,11.30
2023-05-07T11:47:50.792Z,11.60
2023-05-07T11:48:50.743Z,11.40
2023-05-07T11:49:50.750Z,10.40
2023-05-07T11:50:50.697Z,10.70
2023-05-07T11:51:50.687Z,10.40
2023-05-07T11:52:50.659Z,10.80
2023-05-07T11:53:50.642Z,9.80
2023-05-07T11:54:50.625Z,10.10
2023-05-07T11:55:50.601Z,10.00
2023-05-07T11:56:50.592Z,9.70
2023-05-07T11:57:50.596Z,8.80
2023-05-07T11:58:50.559Z,10.50
2023-05-07T11:59:50.560Z,11.00
2023-05-07T12:00:50.508Z,11.60
2023-05-07T12:01:50.553Z,11.40
2023-05-07T12:02:50.616Z,11.60
2023-05-07T12:03:50.560Z,10.60
2023-05-07T12:04:50.486Z,11.50
2023-05-07T12:05:50.412Z,10.70
2023-05-07T12:06:50.386Z,10.00
2023-05-07T12:07:50.383Z,10.60
2023-05-07T12:08:50.347Z,10.30
2023-05-07T12:09:50.329Z,9.00
2023-05-07T12:10:50.316Z,10.00
2023-05-07T12:11:50.293Z,10.20
2023-05-07T12:12:50.341Z,10.40
2023-05-07T12:13:50.265Z,9.30
2023-05-07T12:14:50.238Z,8.90
2023-05-07T12:15:50.238Z,9.10
2023-05-07T12:16:50.226Z,10.00
2023-05-07T12:17:50.238Z,9.70
2023-05-07T12:18:50.156Z,9.80
2023-05-07T12:19:50.134Z,10.50
2023-05-07T12:20:50.119Z,10.00
2023-05-07T12:21:50.095Z,10.10
2023-05-07T12:22:50.079Z,10.10
2023-05-07T12:23:50.073Z,9.30
2023-05-07T12:24:50.087Z,9.50
2023-05-07T12:25:50.039Z,8.30
2023-05-07T12:26:50.001Z,8.10
2023-05-07T12:27:49.981Z,8.00
2023-05-07T12:28:49.978Z,7.90
2023-05-07T12:29:49.949Z,7.90
2023-05-07T12:30:49.928Z,7.70
2023-05-07T12:31:49.967Z,8.80
2023-05-07T12:32:49.936Z,9.10
2023-05-07T12:33:49.871Z,7.40
2023-05-07T12:34:49.850Z,8.10
2023-05-07T12:35:49.830Z,9.50
2023-05-07T12:36:49.822Z,9.70
2023-05-07T12:37:49.795Z,9.00
2023-05-07T12:38:49.773Z,8.90
2023-05-07T12:39:49.777Z,8.60
2023-05-07T12:40:49.744Z,9.30
2023-05-07T12:41:49.719Z,9.30
2023-05-07T12:42:49.700Z,9.20
2023-05-07T12:43:49.682Z,9.70
2023-05-07T12:44:49.660Z,9.30
2023-05-07T12:45:49.652Z,10.30
2023-05-07T12:46:49.745Z,8.80
2023-05-07T12:47:49.728Z,9.50
2023-05-07T12:48:49.575Z,8.90
2023-05-07T12:49:49.570Z,9.60
2023-05-07T12:50:49.542Z,9.00
2023-05-07T12:51:49.523Z,9.90
2023-05-07T12:52:49.502Z,9.50
2023-05-07T12:53:49.487Z,8.30
2023-05-07T12:54:49.463Z,9.00
2023-05-07T12:55:49.456Z,8.80
2023-05-07T12:56:49.428Z,9.20
2023-05-07T12:57:49.423Z,9.80